createdAt,value
2023-03-21T00:00:16.254Z,34.10
2023-03-21T00:02:42.743Z,33.43
2023-03-21T00:05:15.512Z,31.90
2023-03-21T00:07:42.600Z,32.83
2023-03-21T00:10:16.616Z,29.87
2023-03-21T00:12:45.088Z,30.80
2023-03-21T00:15:12.966Z,32.60
2023-03-21T00:17:39.793Z,27.70
2023-03-21T00:20:08.297Z,27.90
2023-03-21T00:22:35.914Z,29.37
2023-03-21T00:25:02.813Z,28.23
2023-03-21T00:27:47.563Z,32.37
2023-03-21T00:30:16.432Z,29.00
2023-03-21T00:32:55.168Z,28.77
2023-03-21T00:35:53.450Z,28.87
2023-03-21T00:38:08.621Z,28.77
2023-03-21T00:40:40.603Z,29.30
2023-03-21T00:43:11.885Z,30.00
2023-03-21T00:45:38.963Z,27.13
2023-03-21T00:48:06.121Z,30.27
2023-03-21T00:50:32.591Z,27.87
2023-03-21T00:52:58.975Z,26.80
2023-03-21T00:55:25.492Z,26.87
2023-03-21T00:58:01.127Z,26.00
2023-03-21T01:00:28.253Z,27.80
2023-03-21T01:03:04.338Z,28.43
2023-03-21T01:05:57.048Z,27.93
2023-03-21T01:08:30.982Z,28.47
2023-03-21T01:11:03.089Z,30.20
2023-03-21T01:13:29.600Z,30.03
2023-03-21T01:15:56.990Z,27.33
2023-03-21T01:18:27.053Z,27.60
2023-03-21T01:20:54.453Z,25.83
2023-03-21T01:23:21.098Z,26.03
2023-03-21T01:25:48.512Z,29.87
2023-03-21T01:28:15.309Z,29.57
2023-03-21T01:30:49.509Z,30.03
2023-03-21T01:33:16.869Z,30.50
2023-03-21T01:35:51.612Z,27.80
2023-03-21T01:38:22.014Z,28.73
2023-03-21T01:40:49.395Z,29.90
2023-03-21T01:43:26.226Z,27.73
2023-03-21T01:46:34.786Z,28.93
2023-03-21T01:49:18.840Z,28.23
2023-03-21T01:51:55.084Z,28.17
2023-03-21T01:54:27.067Z,32.27
2023-03-21T01:56:56.201Z,31.77
2023-03-21T01:59:32.024Z,34.87
2023-03-21T02:02:01.362Z,33.50
2023-03-21T02:04:28.328Z,32.10
2023-03-21T02:07:01.441Z,31.70
2023-03-21T02:09:32.478Z,32.73
2023-03-21T02:12:00.344Z,37.90
2023-03-21T02:14:29.544Z,35.00
2023-03-21T02:17:28.881Z,31.73
2023-03-21T02:20:22.273Z,33.87
2023-03-21T02:23:07.469Z,39.10
2023-03-21T02:25:58.591Z,39.33
2023-03-21T02:28:28.667Z,35.90
2023-03-21T02:31:26.881Z,40.17
2023-03-21T02:34:31.705Z,38.27
2023-03-21T02:37:37.667Z,38.07
2023-03-21T02:40:27.636Z,43.97
2023-03-21T02:43:09.327Z,42.97
2023-03-21T02:45:55.234Z,51.27
2023-03-21T02:48:44.444Z,51.50
2023-03-21T02:51:18.175Z,53.40
2023-03-21T02:53:51.777Z,45.77
2023-03-21T02:56:22.654Z,44.50
2023-03-21T02:58:49.429Z,48.40
2023-03-21T03:01:16.030Z,46.50
2023-03-21T03:03:43.012Z,50.27
2023-03-21T03:06:19.324Z,45.07
2023-03-21T03:09:01.393Z,42.67
2023-03-21T03:11:31.612Z,50.40
2023-03-21T03:14:49.849Z,49.07
2023-03-21T03:17:32.998Z,46.47
2023-03-21T03:20:17.947Z,53.53
2023-03-21T03:22:57.832Z,45.60
2023-03-21T03:25:41.695Z,44.27
2023-03-21T03:28:09.654Z,45.67
2023-03-21T03:30:43.360Z,46.77
2023-03-21T03:33:17.071Z,42.33
2023-03-21T03:35:48.124Z,43.90
2023-03-21T03:38:17.293Z,47.33
2023-03-21T03:40:48.775Z,49.87
2023-03-21T03:43:18.712Z,46.27
2023-03-21T03:45:50.296Z,45.40
2023-03-21T03:48:25.654Z,46.30
2023-03-21T03:50:55.230Z,42.40
2023-03-21T03:53:36.932Z,44.73
2023-03-21T03:56:04.557Z,47.27
2023-03-21T03:58:44.487Z,43.50
2023-03-21T04:01:12.405Z,46.33
2023-03-21T04:03:49.029Z,51.07
2023-03-21T04:06:17.449Z,43.67
2023-03-21T04:08:44.482Z,48.73
2023-03-21T04:11:13.848Z,47.27
2023-03-21T04:13:40.381Z,44.93
2023-03-21T04:16:07.105Z,50.17
2023-03-21T04:18:33.794Z,50.50
2023-03-21T04:21:00.382Z,52.23
2023-03-21T04:23:26.808Z,53.67
2023-03-21T04:25:56.643Z,59.27
2023-03-21T04:28:23.602Z,51.73
2023-03-21T04:31:01.423Z,55.33
2023-03-21T04:33:31.486Z,59.23
2023-03-21T04:35:59.050Z,50.37
2023-03-21T04:38:30.769Z,55.97
2023-03-21T04:40:57.750Z,56.97
2023-03-21T04:43:28.363Z,57.17
2023-03-21T04:45:55.752Z,52.27
2023-03-21T04:48:24.582Z,58.77
2023-03-21T04:50:51.663Z,53.73
2023-03-21T04:53:18.171Z,58.73
2023-03-21T04:55:45.697Z,51.40
2023-03-21T04:58:12.171Z,58.63
2023-03-21T05:00:39.076Z,58.63
2023-03-21T05:03:09.014Z,53.83
2023-03-21T05:05:39.127Z,58.10
2023-03-21T05:08:06.152Z,56.67
2023-03-21T05:10:33.149Z,57.27
2023-03-21T05:12:59.588Z,58.50
2023-03-21T05:15:25.985Z,54.63
2023-03-21T05:17:52.382Z,63.03
2023-03-21T05:20:19.118Z,58.57
2023-03-21T05:22:46.205Z,58.30
2023-03-21T05:25:13.233Z,53.90
2023-03-21T05:27:45.224Z,63.23
2023-03-21T05:30:17.324Z,52.03
2023-03-21T05:32:43.801Z,57.53
2023-03-21T05:35:10.268Z,49.93
2023-03-21T05:37:36.667Z,48.93
2023-03-21T05:40:06.224Z,49.73
2023-03-21T05:42:32.747Z,57.33
2023-03-21T05:44:59.121Z,47.50
2023-03-21T05:47:25.709Z,52.27
2023-03-21T05:49:52.296Z,53.80
2023-03-21T05:52:18.830Z,51.27
2023-03-21T05:54:45.264Z,55.33
2023-03-21T05:57:11.835Z,54.97
2023-03-21T05:59:38.266Z,50.80
2023-03-21T06:02:04.766Z,49.80
2023-03-21T06:04:31.273Z,50.03
2023-03-21T06:06:57.727Z,54.83
2023-03-21T06:09:24.541Z,56.23
2023-03-21T06:11:52.918Z,49.20
2023-03-21T06:14:20.384Z,54.30
2023-03-21T06:16:47.082Z,49.60
2023-03-21T06:19:13.561Z,49.47
2023-03-21T06:21:39.949Z,50.77
2023-03-21T06:24:06.597Z,46.47
2023-03-21T06:26:33.009Z,51.90
2023-03-21T06:28:59.404Z,49.90
2023-03-21T06:31:26.686Z,46.13
2023-03-21T06:33:53.207Z,47.53
2023-03-21T06:36:19.671Z,53.87
2023-03-21T06:38:46.947Z,42.73
2023-03-21T06:41:13.625Z,47.87
2023-03-21T06:43:40.152Z,41.93
2023-03-21T06:46:06.629Z,42.63
2023-03-21T06:48:33.336Z,46.27
2023-03-21T06:50:59.817Z,41.83
2023-03-21T06:53:29.875Z,49.07
2023-03-21T06:55:56.420Z,40.90
2023-03-21T06:58:23.194Z,42.13
2023-03-21T07:00:49.752Z,36.87
2023-03-21T07:03:16.845Z,38.53
2023-03-21T07:05:43.451Z,37.70
2023-03-21T07:08:12.200Z,38.43
2023-03-21T07:10:40.235Z,40.80
2023-03-21T07:13:06.742Z,40.77
2023-03-21T07:15:34.927Z,36.57
2023-03-21T07:18:01.483Z,39.07
2023-03-21T07:20:27.929Z,39.30
2023-03-21T07:22:54.343Z,41.70
2023-03-21T07:25:20.830Z,39.77
2023-03-21T07:27:47.261Z,39.13
2023-03-21T07:30:14.042Z,39.60
2023-03-21T07:32:40.526Z,42.13
2023-03-21T07:35:12.511Z,33.47
2023-03-21T07:37:39.793Z,35.63
2023-03-21T07:40:10.156Z,34.13
2023-03-21T07:42:37.634Z,32.33
2023-03-21T07:45:05.132Z,34.37
2023-03-21T07:47:32.557Z,33.13
2023-03-21T07:49:58.963Z,32.73
2023-03-21T07:52:25.856Z,32.20
2023-03-21T07:54:52.249Z,32.50
2023-03-21T07:57:18.655Z,30.00
2023-03-21T07:59:45.188Z,37.67
2023-03-21T08:02:16.064Z,30.57
2023-03-21T08:04:42.682Z,30.23
2023-03-21T08:07:09.141Z,33.03
2023-03-21T08:09:36.367Z,31.97
2023-03-21T08:12:03.818Z,31.63
2023-03-21T08:14:30.264Z,31.53
2023-03-21T08:16:56.709Z,28.27
2023-03-21T08:19:23.268Z,29.90
2023-03-21T08:21:49.654Z,29.30
2023-03-21T08:24:16.425Z,30.83
2023-03-21T08:26:44.315Z,35.23
2023-03-21T08:29:10.887Z,33.60
2023-03-21T08:31:37.627Z,30.60
2023-03-21T08:34:04.136Z,35.43
2023-03-21T08:36:31.535Z,29.57
2023-03-21T08:39:05.118Z,31.07
2023-03-21T08:41:36.291Z,27.93
2023-03-21T08:44:04.699Z,28.10
2023-03-21T08:46:31.606Z,27.17
2023-03-21T08:48:58.039Z,32.07
2023-03-21T08:51:24.803Z,26.27
2023-03-21T08:53:51.504Z,29.67
2023-03-21T08:56:18.148Z,26.23
2023-03-21T08:58:44.714Z,29.77
2023-03-21T09:01:15.480Z,27.53
2023-03-21T09:03:42.776Z,29.57
2023-03-21T09:06:11.232Z,29.80
2023-03-21T09:08:41.957Z,26.50
2023-03-21T09:11:09.522Z,90.87
2023-03-21T09:13:36.313Z,57.10
2023-03-21T09:16:03.473Z,31.43
2023-03-21T09:18:48.546Z,54.37
2023-03-21T09:21:17.217Z,29.20
2023-03-21T09:23:46.897Z,42.67
2023-03-21T09:26:13.571Z,59.27
2023-03-21T09:28:40.548Z,90.87
2023-03-21T09:31:11.639Z,161.10
2023-03-21T09:33:40.375Z,49.97
2023-03-21T09:36:13.950Z,21.93
2023-03-21T09:38:43.073Z,82.97
2023-03-21T09:41:32.807Z,42.30
2023-03-21T09:44:31.047Z,40.53
2023-03-21T09:47:20.648Z,27.10
2023-03-21T09:49:52.929Z,22.23
2023-03-21T09:52:26.190Z,25.30
2023-03-21T09:54:53.921Z,55.17
2023-03-21T09:57:41.950Z,28.53
2023-03-21T10:00:23.024Z,22.97
2023-03-21T10:02:55.512Z,22.77
2023-03-21T10:05:25.823Z,24.83
2023-03-21T10:08:05.522Z,24.60
2023-03-21T10:10:40.029Z,21.00
2023-03-21T10:13:14.215Z,21.30
2023-03-21T10:15:41.098Z,22.23
2023-03-21T10:18:08.636Z,23.07
2023-03-21T10:20:36.914Z,26.80
2023-03-21T10:23:06.593Z,32.77
2023-03-21T10:25:40.208Z,24.40
2023-03-21T10:28:08.208Z,27.30
2023-03-21T10:30:44.452Z,27.43
2023-03-21T10:33:16.477Z,22.97
2023-03-21T10:35:45.907Z,21.20
2023-03-21T10:38:16.697Z,18.60
2023-03-21T10:40:43.164Z,18.70
2023-03-21T10:43:30.140Z,17.17
2023-03-21T10:45:57.069Z,17.10
2023-03-21T10:48:24.430Z,20.33
2023-03-21T10:50:54.501Z,18.83
2023-03-21T10:53:28.126Z,15.40
2023-03-21T10:55:56.610Z,20.30
2023-03-21T10:58:27.496Z,15.07
2023-03-21T11:00:59.737Z,17.57
2023-03-21T11:03:39.195Z,30.33
2023-03-21T11:06:08.351Z,16.83
2023-03-21T11:08:39.976Z,21.70
2023-03-21T11:11:08.488Z,21.27
2023-03-21T11:13:42.601Z,16.87
2023-03-21T11:16:19.752Z,17.50
2023-03-21T11:18:50.607Z,16.97
2023-03-21T11:21:17.722Z,22.20
2023-03-21T11:23:47.867Z,15.30
2023-03-21T11:26:24.481Z,17.27
2023-03-21T11:28:53.950Z,14.63
2023-03-21T11:31:21.193Z,15.43
2023-03-21T11:33:56.874Z,14.63
2023-03-21T11:36:23.312Z,15.10
2023-03-21T11:38:58.006Z,14.67
2023-03-21T11:41:33.610Z,17.43
2023-03-21T11:44:01.113Z,14.30
2023-03-21T11:46:32.516Z,13.60
2023-03-21T11:48:59.630Z,18.03
2023-03-21T11:52:05.368Z,14.17
2023-03-21T11:54:56.375Z,15.63
2023-03-21T11:57:29.599Z,16.83
2023-03-21T12:00:14.492Z,16.40
2023-03-21T12:02:55.965Z,17.53
2023-03-21T12:05:51.245Z,17.27
2023-03-21T12:08:24.891Z,16.63
2023-03-21T12:10:58.785Z,16.93
2023-03-21T12:13:43.666Z,17.77
2023-03-21T12:16:23.394Z,21.00
2023-03-21T12:18:58.926Z,21.40
2023-03-21T12:21:40.565Z,17.63
2023-03-21T12:24:23.095Z,21.93
2023-03-21T12:27:01.902Z,22.57
2023-03-21T12:29:43.656Z,21.60
2023-03-21T12:32:28.120Z,21.23
2023-03-21T12:35:10.509Z,23.40
2023-03-21T12:38:01.880Z,22.50
2023-03-21T12:40:46.993Z,22.33
2023-03-21T12:43:41.031Z,21.97
2023-03-21T12:46:24.447Z,21.57
2023-03-21T12:49:06.277Z,26.87
2023-03-21T12:51:37.011Z,21.70
2023-03-21T12:54:06.305Z,21.93
2023-03-21T12:56:37.360Z,22.37
2023-03-21T12:59:23.060Z,20.20
2023-03-21T13:01:50.695Z,22.90
2023-03-21T13:04:41.735Z,25.07
2023-03-21T13:07:11.514Z,25.10
2023-03-21T13:09:40.395Z,24.40
2023-03-21T13:12:17.034Z,20.03
2023-03-21T13:15:03.495Z,22.57
2023-03-21T13:17:37.301Z,22.17
2023-03-21T13:20:20.185Z,19.53
2023-03-21T13:22:46.657Z,21.47
2023-03-21T13:25:23.586Z,19.13
2023-03-21T13:28:01.088Z,18.83
2023-03-21T13:30:29.573Z,24.27
2023-03-21T13:33:07.957Z,18.50
2023-03-21T13:35:38.437Z,17.53
2023-03-21T13:38:12.759Z,21.83
2023-03-21T13:40:48.990Z,20.37
2023-03-21T13:43:34.222Z,18.33
2023-03-21T13:46:12.975Z,19.07
2023-03-21T13:48:59.455Z,17.30
2023-03-21T13:51:29.102Z,16.57
2023-03-21T13:54:24.212Z,15.60
2023-03-21T13:56:53.687Z,17.20
2023-03-21T13:59:37.526Z,14.73
2023-03-21T14:02:24.468Z,14.83
2023-03-21T14:05:06.080Z,15.87
2023-03-21T14:07:35.437Z,18.17
2023-03-21T14:10:06.339Z,17.10
2023-03-21T14:12:41.367Z,15.27
2023-03-21T14:15:20.849Z,16.63
2023-03-21T14:17:53.822Z,18.97
2023-03-21T14:20:31.559Z,19.07
2023-03-21T14:22:58.291Z,17.10
2023-03-21T14:25:31.280Z,16.23
2023-03-21T14:28:06.978Z,17.17
2023-03-21T14:30:38.788Z,16.97
2023-03-21T14:33:31.739Z,16.90
2023-03-21T14:36:03.498Z,20.73
2023-03-21T14:38:38.327Z,16.20
2023-03-21T14:41:06.012Z,22.97
2023-03-21T14:43:34.278Z,22.13
2023-03-21T14:46:01.410Z,21.70
2023-03-21T14:48:33.454Z,19.93
2023-03-21T14:51:09.307Z,23.33
2023-03-21T14:53:38.738Z,22.73
2023-03-21T14:56:22.301Z,20.47
2023-03-21T14:58:49.048Z,19.93
2023-03-21T15:01:31.050Z,21.50
2023-03-21T15:04:00.466Z,20.87
2023-03-21T15:06:27.438Z,19.43
2023-03-21T15:09:02.160Z,19.27
2023-03-21T15:11:39.243Z,18.93
2023-03-21T15:14:12.228Z,18.20
2023-03-21T15:16:39.561Z,20.60
2023-03-21T15:19:06.431Z,19.70
2023-03-21T15:21:37.906Z,18.67
2023-03-21T15:24:13.411Z,20.63
2023-03-21T15:26:40.021Z,21.77
2023-03-21T15:29:07.447Z,19.77
2023-03-21T15:31:39.505Z,17.53
2023-03-21T15:34:06.267Z,22.33
2023-03-21T15:36:38.091Z,16.63
2023-03-21T15:39:06.898Z,18.00
2023-03-21T15:41:33.531Z,18.40
2023-03-21T15:44:13.530Z,17.10
2023-03-21T15:46:48.845Z,21.53
2023-03-21T15:49:15.521Z,19.10
2023-03-21T15:51:48.941Z,19.83
2023-03-21T15:54:20.093Z,18.90
2023-03-21T15:56:46.541Z,17.80
2023-03-21T15:59:17.840Z,17.03
2023-03-21T16:01:48.516Z,20.77
2023-03-21T16:04:18.269Z,16.90
2023-03-21T16:07:16.091Z,20.93
2023-03-21T16:09:45.363Z,18.17
2023-03-21T16:12:13.658Z,18.27
2023-03-21T16:14:42.500Z,16.43
2023-03-21T16:17:33.174Z,18.33
2023-03-21T16:20:00.472Z,16.93
2023-03-21T16:22:28.350Z,18.10
2023-03-21T16:24:54.782Z,17.97
2023-03-21T16:27:21.325Z,19.27
2023-03-21T16:29:47.815Z,17.20
2023-03-21T16:32:18.193Z,19.20
2023-03-21T16:34:46.160Z,19.03
2023-03-21T16:37:15.743Z,20.23
2023-03-21T16:39:42.969Z,17.70
2023-03-21T16:42:11.665Z,17.83
2023-03-21T16:44:39.470Z,20.00
2023-03-21T16:47:15.528Z,20.13
2023-03-21T16:49:41.916Z,19.47
2023-03-21T16:52:09.926Z,17.00
2023-03-21T16:54:36.304Z,18.87
2023-03-21T16:57:04.481Z,20.93
2023-03-21T16:59:31.225Z,20.97
2023-03-21T17:01:57.671Z,19.17
2023-03-21T17:04:24.857Z,20.20
2023-03-21T17:06:52.607Z,21.23
2023-03-21T17:09:22.391Z,20.77
2023-03-21T17:11:49.518Z,21.47
2023-03-21T17:14:17.961Z,23.10
2023-03-21T17:16:45.691Z,19.97
2023-03-21T17:19:14.494Z,18.43
2023-03-21T17:21:40.942Z,19.50
2023-03-21T17:24:07.746Z,21.07
2023-03-21T17:26:34.254Z,17.23
2023-03-21T17:29:00.841Z,20.57
2023-03-21T17:31:28.483Z,19.30
2023-03-21T17:33:55.350Z,20.53
2023-03-21T17:36:30.370Z,17.67
2023-03-21T17:38:58.130Z,18.87
2023-03-21T17:41:24.855Z,20.47
2023-03-21T17:43:51.797Z,19.10
2023-03-21T17:46:22.894Z,19.40
2023-03-21T17:48:49.799Z,18.47
2023-03-21T17:51:16.546Z,18.73
2023-03-21T17:53:50.936Z,17.23
2023-03-21T17:56:23.029Z,18.47
2023-03-21T17:58:49.537Z,17.10
2023-03-21T18:01:16.075Z,23.70
2023-03-21T18:03:42.874Z,21.20
2023-03-21T18:06:16.082Z,17.40
2023-03-21T18:08:42.695Z,16.90
2023-03-21T18:11:10.422Z,22.33
2023-03-21T18:13:38.432Z,15.03
2023-03-21T18:16:05.526Z,19.20
2023-03-21T18:18:32.096Z,15.23
2023-03-21T18:20:59.020Z,15.50
2023-03-21T18:23:26.093Z,16.80
2023-03-21T18:25:52.837Z,16.57
2023-03-21T18:28:21.295Z,15.43
2023-03-21T18:33:40.271Z,16.57
2023-03-21T18:36:10.865Z,16.97
2023-03-21T18:38:37.653Z,14.90
2023-03-21T18:41:05.494Z,14.10
2023-03-21T18:44:05.202Z,12.13
2023-03-21T18:46:18.980Z,15.73
2023-03-21T18:48:46.552Z,16.20
2023-03-21T18:51:13.321Z,13.03
2023-03-21T18:53:39.783Z,14.97
2023-03-21T18:56:10.055Z,17.20
2023-03-21T18:58:37.235Z,18.07
2023-03-21T19:01:05.062Z,13.50
2023-03-21T19:03:36.668Z,12.13
2023-03-21T19:06:04.866Z,12.00
2023-03-21T19:08:31.868Z,13.47
2023-03-21T19:11:00.152Z,15.07
2023-03-21T19:13:29.819Z,14.43
2023-03-21T19:15:56.652Z,13.07
2023-03-21T19:18:53.615Z,10.07
2023-03-21T19:21:09.485Z,11.90
2023-03-21T19:23:59.250Z,15.03
2023-03-21T19:26:22.642Z,10.33
2023-03-21T19:28:49.159Z,10.67
2023-03-21T19:31:16.306Z,12.83
2023-03-21T19:33:42.978Z,9.87
2023-03-21T19:36:20.936Z,11.93
2023-03-21T19:38:48.514Z,14.67
2023-03-21T19:41:14.992Z,9.70
2023-03-21T19:43:52.883Z,12.37
2023-03-21T19:46:23.127Z,10.87
2023-03-21T19:48:50.224Z,11.10
2023-03-21T19:51:32.908Z,13.47
2023-03-21T19:54:00.541Z,13.60
2023-03-21T19:56:27.963Z,9.93
2023-03-21T19:58:57.574Z,10.67
2023-03-21T20:01:24.930Z,13.90
2023-03-21T20:03:51.564Z,15.87
2023-03-21T20:06:18.526Z,12.93
2023-03-21T20:11:31.794Z,11.13
2023-03-21T20:13:59.877Z,11.07
2023-03-21T20:16:33.714Z,16.73
2023-03-21T20:19:00.954Z,14.17
2023-03-21T20:21:34.771Z,12.93
2023-03-21T20:24:03.693Z,14.00
2023-03-21T20:26:31.013Z,13.57
2023-03-21T20:29:28.045Z,10.33
2023-03-21T20:31:44.377Z,12.10
2023-03-21T20:34:10.807Z,12.17
2023-03-21T20:36:40.426Z,12.27
2023-03-21T20:39:07.472Z,14.47
2023-03-21T20:41:33.878Z,15.20
2023-03-21T20:46:49.740Z,14.33
2023-03-21T20:49:16.249Z,14.27
2023-03-21T20:54:29.770Z,13.63
2023-03-21T20:56:56.754Z,15.10
2023-03-21T20:59:27.281Z,12.80
2023-03-21T21:01:56.124Z,16.10
2023-03-21T21:04:41.271Z,13.77
2023-03-21T21:07:12.684Z,12.80
2023-03-21T21:09:39.985Z,18.33
2023-03-21T21:12:08.244Z,14.03
2023-03-21T21:14:35.775Z,12.23
2023-03-21T21:17:17.048Z,13.33
2023-03-21T21:19:52.306Z,15.13
2023-03-21T21:22:19.267Z,14.60
2023-03-21T21:24:45.690Z,13.70
2023-03-21T21:27:12.048Z,11.33
2023-03-21T21:29:38.565Z,11.50
2023-03-21T21:32:05.269Z,14.10
2023-03-21T21:34:32.111Z,14.33
2023-03-21T21:36:58.813Z,13.00
2023-03-21T21:39:26.678Z,12.50
2023-03-21T21:41:53.723Z,16.57
2023-03-21T21:44:20.304Z,14.77
2023-03-21T21:46:47.214Z,14.07
2023-03-21T21:49:13.681Z,15.50
2023-03-21T21:51:41.831Z,18.47
2023-03-21T21:54:08.299Z,16.03
2023-03-21T21:56:36.957Z,16.57
2023-03-21T21:59:04.342Z,16.03
2023-03-21T22:01:34.474Z,13.37
2023-03-21T22:04:06.354Z,14.60
2023-03-21T22:06:33.699Z,17.07
2023-03-21T22:09:00.109Z,15.70
2023-03-21T22:11:26.583Z,14.13
2023-03-21T22:13:53.002Z,14.43
2023-03-21T22:16:19.456Z,15.30
2023-03-21T22:18:45.913Z,16.60
2023-03-21T22:21:12.312Z,15.03
2023-03-21T22:23:41.473Z,15.40
2023-03-21T22:26:08.664Z,16.37
2023-03-21T22:28:36.187Z,18.30
2023-03-21T22:31:15.501Z,15.73
2023-03-21T22:33:43.249Z,16.27
2023-03-21T22:36:10.675Z,15.97
2023-03-21T22:38:38.222Z,24.07
2023-03-21T22:41:06.368Z,20.27
2023-03-21T22:43:34.192Z,18.37
2023-03-21T22:46:02.352Z,18.43
2023-03-21T22:48:30.134Z,17.10
2023-03-21T22:51:00.484Z,19.67
2023-03-21T22:53:27.476Z,17.27
2023-03-21T22:55:54.338Z,17.00
2023-03-21T22:58:21.218Z,19.47
2023-03-21T23:00:47.803Z,22.53
2023-03-21T23:03:16.526Z,20.83
2023-03-21T23:05:43.744Z,17.80
2023-03-21T23:08:10.687Z,17.00
2023-03-21T23:10:41.438Z,18.37
2023-03-21T23:13:08.228Z,15.00
2023-03-21T23:15:34.671Z,20.63
2023-03-21T23:18:01.076Z,16.00
2023-03-21T23:20:27.830Z,22.97
2023-03-21T23:22:54.372Z,20.73
2023-03-21T23:25:20.950Z,17.27
2023-03-21T23:27:48.099Z,21.87
2023-03-21T23:30:15.087Z,20.33
2023-03-21T23:32:41.791Z,19.47
2023-03-21T23:35:09.037Z,20.53
2023-03-21T23:37:35.701Z,23.50
2023-03-21T23:40:02.190Z,18.23
2023-03-21T23:42:30.473Z,22.03
2023-03-21T23:44:57.244Z,17.93
2023-03-21T23:47:23.746Z,19.83
2023-03-21T23:49:52.726Z,18.20
2023-03-21T23:52:19.420Z,18.30
2023-03-21T23:54:45.895Z,20.00
2023-03-21T23:57:12.343Z,20.70
2023-03-21T23:59:38.835Z,19.10
